Latest Weather Observations for Lake Julius

IDQ60801

Issued at 8:42 pm EST Saturday 23 February 2019 (issued every 10 minutes, with the page automatically refreshed every 10 minutes)

About weather observations | Map of weather stations | Latest weather observations for QLD | Other Formats
Station Details ID: 029181 Name: LAKE JULIUS AWS Lat: -20.12 Lon: 139.73 Height: 237.0 m
Data from the previous 72 hours. | See also: Recent months at Lake Julius
Date/Time
EST
Temp
°C
App
Temp
°C
Dew
Point
°C
Rel
Hum
%
Delta-T
°C
Wind Press
QNH
hPa
Press
MSL
hPa
Rain since
9am
mm
Dir  Spd
km/h
Gust
km/h
Spd
kts
Gust
kts
23/08:30pm 33.2 31.4 7.2 20 14.4 E 6 7 3 4 - - 0.0
23/08:00pm 34.4 32.9 6.7 18 15.3 E 4 7 2 4 - - 0.0
23/07:30pm 35.0 33.0 6.3 17 15.8 ENE 6 9 3 5 - - 0.0
23/07:00pm 35.8 33.6 6.1 16 16.4 ENE 7 15 4 8 - - 0.0
23/06:30pm 36.7 34.1 5.9 15 17.0 ENE 9 15 5 8 - - 0.0
23/06:00pm 37.3 34.9 5.3 14 17.6 NE 7 13 4 7 - - 0.0
23/05:30pm 37.6 35.1 4.5 13 18.0 SE 7 17 4 9 - - 0.0
23/05:00pm 37.9 34.9 5.8 14 17.8 E 11 17 6 9 - - 0.0
23/04:30pm 38.3 35.5 5.0 13 18.3 E 9 15 5 8 - - 0.0
23/04:00pm 38.6 35.2 4.1 12 18.7 N 11 22 6 12 - - 0.0
23/03:30pm 38.6 34.5 4.1 12 18.7 NNE 15 24 8 13 - - 0.0
23/03:00pm 39.5 37.4 6.0 13 18.8 ESE 6 15 3 8 - - 0.0
23/02:30pm 39.0 36.8 7.7 15 18.0 E 9 19 5 10 - - 0.0
23/02:00pm 38.5 36.3 6.3 14 18.1 ESE 7 15 4 8 - - 0.0
23/01:30pm 38.3 35.8 3.9 12 18.6 SE 6 15 3 8 - - 0.0
23/01:00pm 37.5 35.2 5.5 14 17.7 SSE 7 15 4 8 - - 0.0
23/12:30pm 37.8 35.9 6.7 15 17.5 SSW 6 17 3 9 - - 0.0
23/12:00pm 37.6 35.1 6.6 15 17.4 NE 9 17 5 9 - - 0.0
23/11:30am 37.1 34.9 8.0 17 16.6 ENE 9 17 5 9 - - 0.0
23/11:00am 36.4 35.6 9.8 20 15.6 SSW 4 6 2 3 - - 0.0
23/10:30am 34.8 33.7 9.9 22 14.5 SSW 6 9 3 5 - - 0.0
23/10:00am 32.9 30.3 7.7 21 14.1 S 11 15 6 8 - - 0.0
23/09:30am 32.2 30.1 8.4 23 13.4 S 9 15 5 8 - - 0.0
23/09:00am 29.9 29.1 8.3 26 12.0 SSW 2 4 1 2 - - 0.0
23/08:30am 28.0 26.9 8.3 29 10.8 SSW 4 6 2 3 - - 0.0
23/08:00am 25.8 25.6 11.9 42 8.0 S 4 6 2 3 - - 0.0
23/07:30am 24.1 24.9 12.4 48 6.8 CALM 0 2 0 1 - - 0.0
23/07:00am 22.9 22.2 8.6 40 7.7 SSW 2 6 1 3 - - 0.0
23/06:30am 23.1 22.8 10.2 44 7.1 SSW 2 4 1 2 - - 0.0
23/06:00am 23.2 22.6 10.3 44 7.2 SSW 4 6 2 3 - - 0.0
23/05:30am 23.1 22.6 10.9 46 6.8 SSW 4 7 2 4 - - 0.0
23/05:00am 22.8 22.0 10.9 47 6.7 SW 6 6 3 3 - - 0.0
23/04:30am 23.6 22.2 9.6 41 7.7 SW 7 7 4 4 - - 0.0
23/04:00am 24.5 23.0 9.3 38 8.3 SSW 7 9 4 5 - - 0.0
23/03:30am 24.4 23.2 10.3 41 7.9 SSW 7 7 4 4 - - 0.0
23/03:00am 24.7 23.1 8.2 35 8.9 SSW 6 6 3 3 - - 0.0
23/02:30am 24.7 23.8 11.3 43 7.6 SSW 7 9 4 5 - - 0.0
23/02:00am 24.5 24.8 12.1 46 7.1 SW 2 2 1 1 - - 0.0
23/01:30am 24.6 24.2 11.2 43 7.6 SSW 4 4 2 2 - - 0.0
23/01:00am 25.4 24.5 10.8 40 8.3 SSW 6 7 3 4 - - 0.0
23/12:30am 26.9 25.9 10.2 35 9.4 SSW 6 7 3 4 - - 0.0
23/12:00am 27.5 25.8 8.4 30 10.5 SSW 7 7 4 4 - - 0.0
 
Date/Time
EST
Temp
°C
App
Temp
°C
Dew
Point
°C
Rel
Hum
%
Delta-T
°C
Wind Press
QNH
hPa
Press
MSL
hPa
Rain since
9am
mm
Dir  Spd
km/h
Gust
km/h
Spd
kts
Gust
kts
22/11:30pm 27.7 26.1 8.6 30 10.5 SSW 7 7 4 4 - - 0.0
22/11:00pm 27.4 27.1 12.6 40 8.7 SSW 6 7 3 4 - - 0.0
22/10:30pm 27.7 27.6 13.3 41 8.6 SSW 6 6 3 3 - - 0.0
22/10:00pm 28.4 28.1 12.7 38 9.3 SSW 6 7 3 4 - - 0.0
22/09:30pm 28.8 27.5 10.0 31 10.7 SSW 7 7 4 4 - - 0.0
22/09:00pm 29.6 27.7 6.9 24 12.3 SSW 6 6 3 3 - - 0.0
22/08:30pm 30.0 28.5 8.4 26 12.0 SSW 6 7 3 4 - - 0.0
22/08:00pm 32.1 29.8 4.8 18 14.5 S 6 7 3 4 - - 0.0
22/07:30pm 33.7 30.3 -0.8 11 16.8 SSE 7 13 4 7 - - 0.0
22/07:00pm 34.4 30.7 -0.3 11 17.2 SSE 9 19 5 10 - - 0.0
22/06:30pm 35.3 30.3 -0.9 10 17.8 S 15 22 8 12 - - 0.0
22/06:00pm 35.9 31.6 -1.9 9 18.4 SSE 11 19 6 10 - - 0.0
22/05:30pm 36.4 33.1 -0.1 10 18.3 S 7 17 4 9 - - 0.0
22/05:00pm 36.2 31.5 -1.7 9 18.5 SSE 13 22 7 12 - - 0.0
22/04:30pm 36.4 31.7 -1.5 9 18.6 S 13 26 7 14 - - 0.0
22/04:00pm 36.4 31.0 -1.5 9 18.6 S 17 22 9 12 - - 0.0
22/03:30pm 36.3 31.0 -3.2 8 18.9 SSW 15 22 8 12 - - 0.0
22/03:00pm 36.7 32.4 -1.3 9 18.8 S 11 22 6 12 - - 0.0
22/02:30pm 36.4 31.2 -3.1 8 18.9 S 15 28 8 15 - - 0.0
22/02:00pm 35.9 30.0 -1.9 9 18.4 SSW 19 26 10 14 - - 0.0
22/01:30pm 35.7 30.6 -2.0 9 18.3 S 15 28 8 15 - - 0.0
22/01:00pm 35.6 31.2 -2.1 9 18.3 S 11 22 6 12 - - 0.0
22/12:30pm 35.5 31.5 -2.2 9 18.2 SE 9 22 5 12 - - 0.0
22/12:00pm 35.3 31.1 -0.9 10 17.8 S 11 28 6 15 - - 0.0
22/11:30am 35.0 31.2 -1.1 10 17.7 SE 9 24 5 13 - - 0.0
22/11:00am 34.1 28.1 -1.8 10 17.3 SSE 20 28 11 15 - - 0.0
22/10:30am 32.8 28.6 1.8 14 15.7 SSW 13 20 7 11 - - 0.0
22/10:00am 31.7 27.7 2.8 16 14.8 S 13 20 7 11 - - 0.0
22/09:30am 30.3 26.2 2.5 17 14.0 SSW 13 20 7 11 - - 0.0
22/09:00am 29.1 24.5 1.6 17 13.6 S 15 20 8 11 - - 0.0
22/08:30am 28.4 24.2 1.8 18 13.1 SSW 13 20 7 11 - - 0.0
22/08:00am 27.3 23.0 0.9 18 12.7 SSW 13 19 7 10 - - 0.0
22/07:30am 26.2 22.4 1.5 20 11.9 SSW 11 17 6 9 - - 0.0
22/07:00am 25.5 21.5 0.2 19 11.9 SSW 11 13 6 7 - - 0.0
22/06:30am 24.9 21.2 -0.3 19 11.7 SSW 9 11 5 6 - - 0.0
22/06:00am 25.6 21.8 -0.5 18 12.1 SSW 9 13 5 7 - - 0.0
22/05:30am 25.9 21.7 -1.0 17 12.4 SSW 11 17 6 9 - - 0.0
22/05:00am 25.9 22.8 1.2 20 11.8 SSW 7 13 4 7 - - 0.0
22/04:30am 26.0 22.9 1.3 20 11.9 SSW 7 9 4 5 - - 0.0
22/04:00am 26.8 23.3 -1.1 16 12.9 SW 7 11 4 6 - - 0.0
22/03:30am 27.2 23.9 0.1 17 12.8 SW 7 9 4 5 - - 0.0
22/03:00am 27.9 23.7 -1.1 15 13.5 SSW 11 15 6 8 - - 0.0
22/02:30am 28.3 24.2 0.1 16 13.5 SSW 11 19 6 10 - - 0.0
22/02:00am 28.6 24.6 0.3 16 13.6 SSW 11 15 6 8 - - 0.0
22/01:30am 29.3 24.6 0.9 16 13.9 S 15 22 8 12 - - 0.0
22/01:00am 29.7 25.0 1.2 16 14.0 S 15 22 8 12 - - 0.0
22/12:30am 29.9 25.8 2.2 17 13.9 S 13 24 7 13 - - 0.0
22/12:00am 29.6 26.2 2.0 17 13.8 SSW 9 13 5 7 - - 0.0
 
Date/Time
EST
Temp
°C
App
Temp
°C
Dew
Point
°C
Rel
Hum
%
Delta-T
°C
Wind Press
QNH
hPa
Press
MSL
hPa
Rain since
9am
mm
Dir  Spd
km/h
Gust
km/h
Spd
kts
Gust
kts
21/11:30pm 30.5 27.2 2.7 17 14.1 S 9 17 5 9 - - 0.0
21/11:00pm 31.1 27.2 1.4 15 14.8 S 11 19 6 10 - - 0.0
21/10:30pm 31.6 27.7 0.9 14 15.2 S 11 17 6 9 - - 0.0
21/10:00pm 32.2 28.3 1.3 14 15.5 SSE 11 20 6 11 - - 0.0
21/09:30pm 32.6 28.4 1.7 14 15.6 SSE 13 24 7 13 - - 0.0
21/09:00pm 33.0 29.6 3.9 16 15.3 S 11 17 6 9 - - 0.0
21/08:30pm 33.8 29.4 2.6 14 16.1 S 15 26 8 14 - - 0.0
21/08:00pm 34.1 29.7 2.8 14 16.3 S 15 24 8 13 - - 0.0
21/07:30pm 34.8 30.3 2.3 13 16.8 S 15 20 8 11 - - 0.0
21/07:00pm 35.5 30.6 1.8 12 17.4 S 17 28 9 15 - - 0.0
21/06:30pm 36.2 31.5 1.1 11 18.0 S 15 24 8 13 - - 0.0
21/06:00pm 36.8 31.6 0.2 10 18.5 S 17 28 9 15 - - 0.0
21/05:30pm 37.2 33.0 1.8 11 18.4 S 13 28 7 15 - - 0.0
21/05:00pm 37.6 32.5 0.8 10 18.9 S 17 26 9 14 - - 0.0
21/04:30pm 38.0 34.1 1.1 10 19.1 SSE 11 20 6 11 - - 0.0
21/04:00pm 37.7 32.4 -0.6 9 19.2 S 17 28 9 15 - - 0.0
21/03:30pm 37.6 33.3 0.8 10 18.9 S 13 20 7 11 - - 0.0
21/03:00pm 37.3 32.7 -0.9 9 19.1 SSE 13 20 7 11 - - 0.0
21/02:30pm 37.0 32.4 -1.1 9 18.9 S 13 22 7 12 - - 0.0
21/02:00pm 37.7 34.4 2.2 11 18.6 SSW 9 17 5 9 - - 0.0
21/01:30pm 36.7 33.8 1.5 11 18.2 SSE 6 17 3 9 - - 0.0
21/01:00pm 36.0 31.7 0.9 11 17.9 S 13 22 7 12 - - 0.0
21/12:30pm 36.0 31.9 2.1 12 17.6 S 13 20 7 11 - - 0.0
21/12:00pm 35.6 32.4 0.6 11 17.7 SSW 7 15 4 8 - - 0.0
21/11:30am 34.6 31.3 2.2 13 16.7 SSW 9 17 5 9 - - 0.0
21/11:00am 33.3 28.1 -2.4 10 16.9 SSE 15 20 8 11 - - 0.0
21/10:30am 33.6 30.0 0.3 12 16.5 SSE 9 17 5 9 - - 0.0
21/10:00am 33.1 29.6 1.0 13 16.1 SE 9 15 5 8 - - 0.0
21/09:30am 31.7 28.4 -0.1 13 15.5 ESE 7 13 4 7 - - 0.0
21/09:00am 30.9 28.4 3.8 18 14.0 ENE 6 9 3 5 - - 0.0
21/08:30am 29.2 30.3 13.4 38 9.5 CALM 0 2 0 1 - - 0.0
21/08:00am 26.7 27.7 13.1 43 8.0 CALM 0 0 0 0 - - 0.0
21/07:30am 24.9 25.2 10.8 41 8.0 CALM 0 0 0 0 - - 0.0
21/07:00am 23.9 23.6 8.7 38 8.2 CALM 0 0 0 0 - - 0.0
21/06:30am 24.1 23.3 8.1 36 8.6 NNE 2 4 1 2 - - 0.0
21/06:00am 25.5 24.7 6.7 30 9.9 CALM 0 0 0 0 - - 0.0
21/05:30am 26.8 25.6 4.6 24 11.4 CALM 0 2 0 1 - - 0.0
21/05:00am 27.6 24.9 5.8 25 11.5 SSE 9 13 5 7 - - 0.0
21/04:30am 26.7 25.6 5.1 25 11.2 CALM 0 0 0 0 - - 0.0
21/04:00am 27.7 27.0 7.0 27 11.1 CALM 0 0 0 0 - - 0.0
21/03:30am 29.7 27.5 3.6 19 13.4 S 4 7 2 4 - - 0.0
21/03:00am 31.0 27.4 0.4 14 15.0 SSE 9 15 5 8 - - 0.0
21/02:30am 31.4 27.4 0.7 14 15.1 S 11 17 6 9 - - 0.0
21/02:00am 31.8 27.5 1.0 14 15.3 SSE 13 20 7 11 - - 0.0
21/01:30am 32.2 28.6 3.2 16 15.0 S 11 15 6 8 - - 0.0
21/01:00am 31.7 29.7 8.7 24 13.0 SSE 9 11 5 6 - - 0.0
21/12:30am 32.0 31.0 8.9 24 13.1 SSE 4 9 2 5 - - 0.0
21/12:00am 31.7 30.8 9.3 25 12.7 NNE 4 6 2 3 - - 0.0
 
Date/Time
EST
Temp
°C
App
Temp
°C
Dew
Point
°C
Rel
Hum
%
Delta-T
°C
Wind Press
QNH
hPa
Press
MSL
hPa
Rain since
9am
mm
Dir  Spd
km/h
Gust
km/h
Spd
kts
Gust
kts
20/11:30pm 31.8 31.1 9.9 26 12.6 NE 4 7 2 4 - - 0.0
20/11:00pm 34.0 32.4 8.6 21 14.5 SSW 7 11 4 6 - - 0.0
20/10:30pm 34.6 32.5 8.4 20 14.9 S 9 15 5 8 - - 0.0
20/10:00pm 35.0 32.8 9.4 21 14.8 S 11 17 6 9 - - 0.0
20/09:30pm 34.9 34.2 12.0 25 13.8 SSW 7 13 4 7 - - 0.0
20/09:00pm 34.0 33.9 15.9 33 11.5 S 11 19 6 10 - - 0.0

Other formats

Comma delimited format used in spreadsheet applications
http://www.bom.gov.au/fwo/IDQ60801/IDQ60801.94348.axf

JavaScript Object Notation format (JSON) in row-major order
http://www.bom.gov.au/fwo/IDQ60801/IDQ60801.94348.json

Data quality

Most of these data are generated automatically and are frequently updated. Quality checks on data are not normally performed. It is possible for incorrect values to appear. Refer to information at About Latest Weather Observations and please check the disclaimer before using these data.